Map

Track Data

SID SEASON NUMBER BASIN SUBBASIN NAME ISO_TIME NATURE LAT LON WMO_WIND WMO_PRES WMO_AGENCY TRACK_TYPE DIST2LAND LANDFALL IFLAG USA_AGENCY USA_ATCF_ID USA_LAT USA_LON USA_RECORD USA_STATUS USA_WIND USA_PRES USA_SSHS USA_R34_NE USA_R34_SE USA_R34_SW USA_R34_NW USA_R50_NE USA_R50_SE USA_R50_SW USA_R50_NW USA_R64_NE USA_R64_SE USA_R64_SW USA_R64_NW USA_POCI USA_ROCI USA_RMW USA_EYE TOKYO_LAT TOKYO_LON TOKYO_GRADE TOKYO_WIND TOKYO_PRES TOKYO_R50_DIR TOKYO_R50_LONG TOKYO_R50_SHORT TOKYO_R30_DIR TOKYO_R30_LONG TOKYO_R30_SHORT TOKYO_LAND CMA_LAT CMA_LON CMA_CAT CMA_WIND CMA_PRES HKO_LAT HKO_LON HKO_CAT HKO_WIND HKO_PRES NEWDELHI_LAT NEWDELHI_LON NEWDELHI_GRADE NEWDELHI_WIND NEWDELHI_PRES NEWDELHI_CI NEWDELHI_DP NEWDELHI_POCI REUNION_LAT REUNION_LON REUNION_TYPE REUNION_WIND REUNION_PRES REUNION_TNUM REUNION_CI REUNION_RMW REUNION_R34_NE REUNION_R34_SE REUNION_R34_SW REUNION_R34_NW REUNION_R50_NE REUNION_R50_SE REUNION_R50_SW REUNION_R50_NW REUNION_R64_NE REUNION_R64_SE REUNION_R64_SW REUNION_R64_NW BOM_LAT BOM_LON BOM_TYPE BOM_WIND BOM_PRES BOM_TNUM BOM_CI BOM_RMW BOM_R34_NE BOM_R34_SE BOM_R34_SW BOM_R34_NW BOM_R50_NE BOM_R50_SE BOM_R50_SW BOM_R50_NW BOM_R64_NE BOM_R64_SE BOM_R64_SW BOM_R64_NW BOM_ROCI BOM_POCI BOM_EYE BOM_POS_METHOD BOM_PRES_METHOD NADI_LAT NADI_LON NADI_CAT NADI_WIND NADI_PRES WELLINGTON_LAT WELLINGTON_LON WELLINGTON_WIND WELLINGTON_PRES DS824_LAT DS824_LON DS824_STAGE DS824_WIND DS824_PRES TD9636_LAT TD9636_LON TD9636_STAGE TD9636_WIND TD9636_PRES TD9635_LAT TD9635_LON TD9635_WIND TD9635_PRES TD9635_ROCI NEUMANN_LAT NEUMANN_LON NEUMANN_CLASS NEUMANN_WIND NEUMANN_PRES MLC_LAT MLC_LON MLC_CLASS MLC_WIND MLC_PRES USA_GUST BOM_GUST BOM_GUST_PER REUNION_GUST REUNION_GUST_PER USA_SEAHGT USA_SEARAD_NE USA_SEARAD_SE USA_SEARAD_SW USA_SEARAD_NW STORM_SPEED STORM_DIR
2020005S08133 2020 1 SI WA CLAUDIA 2020-01-04 18:00:00 NR -8.20000 133.200 main 179 179 O_____________ jtwc_sh SH072020 -8.20000 133.200 DB 15 1010 -3 7 135
2020005S08133 2020 1 SI WA CLAUDIA 2020-01-04 21:00:00 NR -8.44502 133.445 main 189 189 P_____________ SH072020 -8.44502 133.445 DB 15 1008 -3 6 129
2020005S08133 2020 1 SI WA CLAUDIA 2020-01-05 00:00:00 NR -8.60000 133.700 main 198 193 O_____________ jtwc_sh SH072020 -8.60000 133.700 DB 15 1007 -3 5 110
2020005S08133 2020 1 SI WA CLAUDIA 2020-01-05 03:00:00 NR -8.62751 133.965 main 191 191 P_____________ SH072020 -8.62751 133.965 DB 17 1006 -3 8 108
2020005S08133 2020 1 SI WA CLAUDIA 2020-01-05 06:00:00 NR -8.84000 134.460 20 1006 bom main 215 215 O_____O_______ jtwc_sh SH072020 -8.70000 134.200 DB 20 1006 -3 1008 140 50 -9.40000 135.500 20 1006 1.00000 1.00000 199 1010 3 5 45 45 10 125
2020005S08133 2020 1 SI WA CLAUDIA 2020-01-05 09:00:00 NR -9.18246 134.778 main 266 266 P_____P_______ SH072020 -9.04242 134.335 DB 20 1006 -3 1008 147 50 -9.46253 135.663 20 1006 199 1010 8 136
2020005S08133 2020 1 SP EA CLAUDIA 2020-01-05 12:00:00 NR -9.44286 135.057 20 1006 bom main 296 271 O_____O_______ jtwc_sh SH072020 -9.40000 134.500 DB 20 1007 -3 1009 155 50 -9.50000 135.800 20 1006 1.00000 1.00000 199 1010 5 45 45 7 120
2020005S08133 2020 1 SP EA CLAUDIA 2020-01-05 15:00:00 NR -9.51128 135.366 main 271 252 P_____P_______ SH072020 -9.52258 134.835 DB 20 1005 -3 1007 130 50 -9.49998 135.897 20 1006 199 1010 5 101
2020005S08133 2020 1 SP EA CLAUDIA 2020-01-05 18:00:00 NR -9.55000 135.600 20 1006 bom main 252 239 O_____O_______ jtwc_sh SH072020 -9.60000 135.200 DB 20 1003 -3 1005 105 50 -9.50000 136.000 20 1006 1.00000 1.00000 199 1010 3 5 45 45 5 110
2020005S08133 2020 1 SP EA CLAUDIA 2020-01-05 21:00:00 NR -9.67499 135.818 main 245 235 P_____P_______ SH072020 -9.79996 135.472 DB 20 1004 -3 1006 100 57 -9.55001 136.164 22 1006 199 1010 5 121
2020005S08133 2020 1 SP EA CLAUDIA 2020-01-06 00:00:00 NR -9.80000 136.020 25 1006 bom main 235 219 O_____O_______ jtwc_sh SH072020 -10.0000 135.700 DB 20 1005 -3 1007 95 65 -9.60000 136.340 25 1006 1.00000 1.00000 199 1010 5 45 45 4 116
2020005S08133 2020 1 SP EA CLAUDIA 2020-01-06 03:00:00 NR -9.85748 136.204 main 227 213 P_____P_______ SH072020 -10.1150 135.900 DB 20 1006 -3 1007 112 60 -9.60001 136.507 25 1006 159 1010 4 107
2020005S08133 2020 1 SP EA CLAUDIA 2020-01-06 06:00:00 NR -9.90000 136.360 25 1006 bom main 213 206 O_____O_______ jtwc_sh SH072020 -10.2000 136.100 DB 20 1007 -3 1008 130 55 -9.60000 136.620 25 1006 1.50000 1.50000 119 1010 3 5 45 45 3 110
2020005S08133 2020 1 SP EA CLAUDIA 2020-01-06 09:00:00 NR -9.96000 136.487 main 216 210 P_____P_______ SH072020 -10.2925 136.350 DB 20 1007 -3 1008 137 52 -9.62749 136.624 22 1006 119 1010 3 122
2020005S08133 2020 1 SP EA CLAUDIA 2020-01-06 12:00:00 NR -10.0500 136.600 20 1006 bom main 210 202 O_____O_______ jtwc_sh SH072020 -10.4000 136.600 DB 20 1007 -3 1008 145 50 -9.70000 136.600 20 1006 1.50000 1.50000 119 1010 3 5 45 45 3 139
2020005S08133 2020 1 SP EA CLAUDIA 2020-01-06 15:00:00 NR -10.1785 136.679 main 202 191 P_____P_______ SH072020 -10.5574 136.785 DB 22 1005 -3 1007 145 50 -9.79963 136.574 22 1005 119 1009 4 141
2020005S08133 2020 1 SP EA CLAUDIA 2020-01-06 18:00:00 TS -10.3500 136.850 25 1004 bom main 195 179 O_____O_______ jtwc_sh SH072020 -10.7000 137.000 TD 25 1004 -1 1007 145 50 -10.0000 136.700 25 1004 1.50000 1.50000 119 1008 3 5 45 45 7 122
2020005S08133 2020 1 SP EA CLAUDIA 2020-01-06 21:00:00 TS -10.5629 137.308 main 179 179 P_____P_______ SH072020 -10.7426 137.388 TD 25 1004 -1 1007 145 50 -10.3831 137.229 25 1004 104 1008 9 117
2020005S08133 2020 1 SP EA CLAUDIA 2020-01-07 00:00:00 TS -10.7850 137.700 25 1004 bom main 184 164 O_____O_______ jtwc_sh SH072020 -10.8000 137.700 TD 25 1004 -1 1007 145 50 -10.7700 137.700 25 1004 1.00000 1.50000 90 1008 5 45 45 6 136
2020005S08133 2020 1 SP EA CLAUDIA 2020-01-07 03:00:00 TS -10.9812 137.716 main 164 145 P_____P_______ SH072020 -10.9773 137.777 TD 25 1002 -1 1005 150 50 -10.9851 137.655 25 1004 90 1008 4 208
2020005S08133 2020 1 SP EA CLAUDIA 2020-01-07 06:00:00 TS -11.1500 137.500 25 1004 bom main 145 109 O_____O_______ jtwc_sh SH072020 -11.2000 137.600 TD 25 1001 -1 1004 155 50 -11.1000 137.400 25 1004 1.00000 1.50000 90 1008 6 5 45 45 6 239
2020005S08133 2020 1 SP EA CLAUDIA 2020-01-07 09:00:00 TS -11.3100 137.165 main 109 74 P_____P_______ SH072020 -11.4453 137.123 TD 25 1001 -1 1005 160 50 -11.1748 137.207 22 1004 90 1008 7 250
2020005S08133 2020 1 SP EA CLAUDIA 2020-01-07 12:00:00 TS -11.4000 136.800 20 1004 bom main 74 68 O_____O_______ jtwc_sh SH072020 -11.6000 136.600 TD 25 1002 -1 1006 165 50 -11.2000 137.000 20 1004 2.00000 2.00000 90 1008 6 5 45 45 6 263
2020005S08133 2020 1 SP EA CLAUDIA 2020-01-07 15:00:00 TS -11.3761 136.589 main 68 67 P_____P_______ SH072020 -11.5373 136.370 TD 25 1002 -1 1006 165 50 -11.2150 136.808 22 1003 90 1008 4 284
2020005S08133 2020 1 SP EA CLAUDIA 2020-01-07 18:00:00 TS -11.3000 136.400 25 1002 bom main 79 79 O_____O_______ jtwc_sh SH072020 -11.4000 136.200 TD 25 1002 -1 1006 165 50 -11.2000 136.600 25 1002 2.00000 2.00000 90 1008 6 5 45 45 5 288
2020005S08133 2020 1 SP EA CLAUDIA 2020-01-07 21:00:00 TS -11.2313 136.136 main 99 99 P_____P_______ SH072020 -11.3275 135.900 TD 25 1002 -1 1006 165 50 -11.1350 136.372 25 1001 90 1008 5 281
2020005S08133 2020 1 SP EA CLAUDIA 2020-01-08 00:00:00 TS -11.2000 135.850 25 1000 bom main 101 100 O_____O_______ jtwc_sh SH072020 -11.3000 135.600 TD 25 1003 -1 1006 165 50 -11.1000 136.100 25 1000 2.00000 2.00000 90 1008 6 5 45 45 6 268
2020005S08133 2020 1 SP EA CLAUDIA 2020-01-08 03:00:00 TS -11.2461 135.559 main 100 90 P_____P_______ SH072020 -11.3200 135.378 TD 25 1002 -1 1005 162 50 -11.1723 135.741 27 999 90 1007 6 254
2020005S08133 2020 1 SP EA CLAUDIA 2020-01-08 06:00:00 TS -11.3500 135.300 30 999 bom main 95 74 O_____O_______ jtwc_sh SH072020 -11.4000 135.200 TD 25 1002 -1 1005 160 50 -11.3000 135.400 30 999 2.50000 2.50000 90 1006 6 5 45 45 5 241
2020005S08133 2020 1 SP EA CLAUDIA 2020-01-08 09:00:00 TS -11.4838 135.131 main 74 60 P_____P_______ SH072020 -11.5499 135.065 TD 25 1002 -1 1005 157 50 -11.4177 135.196 30 998 100 1006 4 229
2020005S08133 2020 1 SI WA CLAUDIA 2020-01-08 12:00:00 TS -11.6350 134.960 30 998 bom main 60 33 O_____O_______ jtwc_sh SH072020 -11.7000 134.900 TD 25 1003 -1 1006 155 50 -11.5700 135.020 30 998 2.50000 2.50000 110 1006 6 5 45 45 5 236
2020005S08133 2020 1 SI WA CLAUDIA 2020-01-08 15:00:00 TS -11.7814 134.681 main 33 22 P_____P_______ SH072020 -11.7651 134.600 TD 25 1002 -1 1005 145 50 -11.7978 134.762 30 998 94 1006 6 244
2020005S08133 2020 1 SI WA CLAUDIA 2020-01-08 18:00:00 TS -11.9000 134.400 30 998 bom main 22 11 O_____O_______ jtwc_sh SH072020 -11.8000 134.300 TD 25 1001 -1 1004 135 50 -12.0000 134.500 30 998 2.00000 2.50000 79 1006 6 5 45 45 5 250
2020005S08133 2020 1 SI WA CLAUDIA 2020-01-08 21:00:00 TS -11.9499 134.217 main 11 0 P_____P_______ SH072020 -11.8424 134.142 TD 25 1001 -1 1004 135 50 -12.0575 134.292 30 998 74 1005 4 254
2020005S08133 2020 1 SI WA CLAUDIA 2020-01-09 00:00:00 TS -12.0000 134.050 30 998 bom main 0 0 O_____O_______ jtwc_sh SH072020 -11.9000 134.000 TD 25 1001 -1 1004 135 50 -12.1000 134.100 30 998 70 1004 6 5 45 45 4 244
2020005S08133 2020 1 SI WA CLAUDIA 2020-01-09 03:00:00 TS -12.1242 133.844 main 0 0 P_____P_______ SH072020 -12.0074 133.788 TD 22 1001 -1 1004 132 50 -12.2410 133.901 27 998 60 1004 5 239
2020005S08133 2020 1 SI WA CLAUDIA 2020-01-09 06:00:00 NR -12.2650 133.595 25 998 bom main 0 0 O_____O_______ jtwc_sh SH072020 -12.1000 133.500 DB 20 1002 -3 1004 130 50 -12.4300 133.690 25 998 50 1004 6 5 45 45 6 245
2020005S08133 2020 1 SI WA CLAUDIA 2020-01-09 09:00:00 NR -12.3862 133.282 main 0 0 P_____P_______ SH072020 -12.1151 133.107 DB 20 1002 -3 1004 125 40 -12.6572 133.457 25 998 50 1004 7 251
2020005S08133 2020 1 SI WA CLAUDIA 2020-01-09 12:00:00 NR -12.4750 132.955 25 999 bom main 0 0 O_____O_______ jtwc_sh SH072020 -12.1000 132.700 DB 20 1003 -3 1004 120 30 -12.8500 133.210 25 999 50 1004 3 5 45 45 6 257
2020005S08133 2020 1 SI WA CLAUDIA 2020-01-09 15:00:00 NR -12.5175 132.689 main 0 0 P_____P_______ SH072020 -12.1149 132.378 DB 20 1002 -3 1003 115 30 -12.9201 133.000 22 1000 54 1005 5 265
2020005S08133 2020 1 SI WA CLAUDIA 2020-01-09 18:00:00 NR -12.5250 132.405 20 1002 bom main 0 0 O_____O_______ jtwc_sh SH072020 -12.1000 132.100 DB 20 1001 -3 1003 110 30 -12.9500 132.710 20 1002 59 1006 3 5 45 45 6 270
2020005S08133 2020 1 SI WA CLAUDIA 2020-01-09 21:00:00 NR -12.5147 132.062 main 0 0 P_____P_______ SH072020 -11.9624 131.872 DB 17 1003 -3 1004 135 30 -13.0670 132.251 20 1003 59 1006 7 272
2020005S08133 2020 1 SI WA CLAUDIA 2020-01-10 00:00:00 NR -12.5000 131.650 20 1004 bom main 0 0 O_____O_______ jtwc_sh SH072020 -11.9000 131.600 DB 15 1006 -3 1006 160 30 -13.1000 131.700 20 1004 59 1006 3 5 45 45 9 271
2020005S08133 2020 1 SI WA CLAUDIA 2020-01-10 03:00:00 NR -12.4974 131.141 main 0 0 P_____P_______ SH072020 -12.1126 131.173 DB 20 1003 -3 1004 170 30 -12.8822 131.109 20 1004 54 1006 10 269
2020005S08133 2020 1 SI WA CLAUDIA 2020-01-10 06:00:00 TS -12.5200 130.645 20 1004 bom main 0 0 O_____O_______ jtwc_sh SH072020 -12.4000 130.700 TD 25 1001 -1 1003 180 30 -12.6400 130.590 20 1004 50 1006 3 5 45 45 8 264
2020005S08133 2020 1 SI WA CLAUDIA 2020-01-10 09:00:00 TS -12.5837 130.282 main 15 15 P_____P_______ SH072020 -12.5799 130.285 TD 25 1001 -1 1003 180 30 -12.5875 130.278 22 1001 62 1005 7 257
2020005S08133 2020 1 SI WA CLAUDIA 2020-01-10 12:00:00 TS -12.6650 129.975 25 999 bom main 35 35 O_____O_______ jtwc_sh SH072020 -12.7000 129.900 TD 25 1001 -1 1003 180 30 -12.6300 130.050 25 999 75 1004 3 5 45 45 6 255
2020005S08133 2020 1 SI WA CLAUDIA 2020-01-10 15:00:00 TS -12.7357 129.683 main 54 54 P_____P_______ SH072020 -12.7574 129.557 TD 25 1001 -1 1003 165 30 -12.7141 129.810 27 998 67 1004 6 258
2020005S08133 2020 1 SI WA CLAUDIA 2020-01-10 18:00:00 TS -12.8000 129.350 30 997 bom main 79 79 O_____O_______ jtwc_sh SH072020 -12.8000 129.200 TD 25 1001 -1 1004 150 30 -12.8000 129.500 30 997 2.00000 2.00000 59 1004 3 5 45 45 8 261
2020005S08133 2020 1 SI WA CLAUDIA 2020-01-10 21:00:00 TS -12.8488 128.922 main 125 118 P_____P_______ SH072020 -12.8923 128.795 TD 25 1001 -1 1004 150 30 -12.8052 129.049 30 996 74 1004 9 264
2020005S08133 2020 1 SI WA CLAUDIA 2020-01-11 00:00:00 TS -12.9000 128.400 30 996 bom main 163 117 O_____O_______ jtwc_sh SH072020 -13.0000 128.300 TD 25 1002 -1 1004 150 30 -12.8000 128.500 30 996 2.00000 2.00000 90 1004 3 5 45 45 11 264
2020005S08133 2020 1 SI WA CLAUDIA 2020-01-11 03:00:00 TS -12.9752 127.768 main 117 90 P_____P_______ SH072020 -13.1153 127.635 TD 30 999 -1 1003 152 30 -12.8351 127.900 30 996 90 1005 12 263
2020005S08133 2020 1 SI WA CLAUDIA 2020-01-11 06:00:00 TS -13.0500 127.150 30 996 bom main 90 78 O_____O_______ jtwc_sh SH072020 -13.2000 127.000 TS 35 996 0 1002 155 30 -12.9000 127.300 30 996 2.50000 2.50000 90 1006 3 5 45 45 10 264
2020005S08133 2020 1 SI WA CLAUDIA 2020-01-11 09:00:00 TS -13.0823 126.719 main 81 81 P_____P_______ SH072020 -13.1920 126.642 TS 37 997 0 1003 167 30 -12.9725 126.797 32 996 90 1006 8 263
2020005S08133 2020 1 SI WA CLAUDIA 2020-01-11 12:00:00 TS -13.1500 126.300 35 996 bom main 100 79 O_____O_______ jtwc_sh SH072020 -13.2000 126.300 TS 40 999 0 30 25 25 40 1004 180 30 -13.1000 126.300 21 35 996 2.50000 2.50000 19 30 30 90 1006 5 49 49 10 256
2020005S08133 2020 1 SI WA CLAUDIA 2020-01-11 15:00:00 TS -13.3137 125.759 40 994 bom main 84 84 P_____O_______ SH072020 -13.3273 125.768 TS 42 996 0 40 37 42 45 1003 175 30 -13.3000 125.750 30 40 994 3.00000 3.00000 19 30 35 30 39 90 1004 5 55 55 12 253
2020005S08133 2020 1 SI WA CLAUDIA 2020-01-11 18:00:00 TS -13.5000 125.150 45 993 bom main 99 99 O_____O_______ jtwc_sh SH072020 -13.5000 125.100 TS 45 994 0 50 50 60 50 1002 170 30 -13.5000 125.200 30 45 993 3.00000 3.00000 19 39 39 59 39 70 1002 3 5 64 64 14 255
2020005S08133 2020 1 SI WA CLAUDIA 2020-01-11 21:00:00 TS -13.6784 124.338 main 139 139 P_____P_______ SH072020 -13.6428 124.292 TS 47 991 0 42 55 55 47 1003 175 22 -13.7140 124.384 30 50 988 19 39 39 69 49 70 1002 16 258
2020005S08133 2020 1 SI WA CLAUDIA 2020-01-12 00:00:00 TS -13.8500 123.500 55 983 bom main 204 199 O_____O_______ jtwc_sh SH072020 -13.8000 123.500 TS 50 989 0 35 60 50 45 15 20 20 1004 180 15 -13.9000 123.500 30 55 983 3.50000 3.50000 19 39 39 79 59 70 1002 2 75 75 14 258
2020005S08133 2020 1 SI WA CLAUDIA 2020-01-12 03:00:00 TS -13.9708 122.894 main 241 241 P_____P_______ SH072020 -13.9617 122.957 TS 52 988 0 45 85 82 57 32 40 27 1003 180 15 -13.9800 122.831 30 55 982 19 39 49 79 64 84 1003 12 256
2020005S08133 2020 1 SI WA CLAUDIA 2020-01-12 06:00:00 TS -14.1500 122.300 55 982 bom main 276 262 O_____O_______ jtwc_sh SH072020 -14.2000 122.400 TS 55 988 0 55 110 115 70 20 50 60 35 1002 180 15 -14.1000 122.200 30 55 982 3.50000 3.50000 19 39 59 79 70 99 1004 3 5 75 75 14 249
2020005S08133 2020 1 SI WA CLAUDIA 2020-01-12 09:00:00 TS -14.4757 121.567 main 263 263 P_____P_______ SH072020 -14.5775 121.603 TS 57 987 0 57 97 95 62 22 45 45 27 1002 175 15 -14.3739 121.531 30 57 980 19 39 64 94 80 99 1003 17 244
2020005S08133 2020 1 SI WA CLAUDIA 2020-01-12 12:00:00 TS -14.8800 120.725 60 979 bom main 293 293 O_____O_______ jtwc_sh SH072020 -15.0000 120.700 TS 60 986 0 60 85 75 55 25 40 30 20 1002 170 15 -14.7600 120.750 30 60 979 4.00000 4.00000 19 39 70 110 90 99 1002 5 84 84 19 245
2020005S08133 2020 1 SI WA CLAUDIA 2020-01-12 15:00:00 TS -15.3037 119.765 main 334 334 P_____P_______ SH072020 -15.3723 119.800 TS 62 983 0 62 102 80 57 25 50 35 22 1001 170 15 -15.2351 119.729 30 65 976 14 49 80 110 90 124 1002 20 246
2020005S08133 2020 1 SI WA CLAUDIA 2020-01-12 18:00:00 TS -15.7000 118.800 70 973 bom main 404 404 O_____O_______ jtwc_sh SH072020 -15.7000 118.900 TY 65 981 1 65 120 85 60 25 60 40 25 15 15 1000 170 15 -15.7000 118.700 40 70 973 4.50000 4.50000 10 59 90 110 90 150 1002 5 99 99 19 248
2020005S08133 2020 1 SI WA CLAUDIA 2020-01-12 21:00:00 TS -15.9871 117.982 main 470 467 P_____P_______ SH072020 -15.9495 118.049 TY 70 979 1 75 120 95 82 27 47 45 32 20 20 1001 172 15 -16.0247 117.916 40 72 970 10 64 90 100 90 134 1002 16 250
2020005S08133 2020 1 SI WA CLAUDIA 2020-01-13 00:00:00 TS -16.2500 117.200 75 967 bom main 479 448 O_____O_______ jtwc_sh SH072020 -16.2000 117.200 TY 75 977 1 85 120 105 105 30 35 50 40 5 25 25 10 1002 175 15 -16.3000 117.200 40 75 967 4.50000 4.50000 10 70 90 90 90 119 1002 5 104 104 17 249
2020005S08133 2020 1 SI WA CLAUDIA 2020-01-13 03:00:00 TS -16.5936 116.347 main 449 429 P_____P_______ SH072020 -16.5650 116.285 TY 77 974 1 87 115 107 102 37 45 52 45 12 27 27 17 1001 177 15 -16.6223 116.408 40 77 965 10 70 84 90 90 134 1002 18 248
2020005S08133 2020 1 SI WA CLAUDIA 2020-01-13 06:00:00 TS -16.9000 115.500 80 963 bom main 432 428 O_____O_______ jtwc_sh SH072020 -16.9000 115.400 TY 80 972 1 90 110 110 100 45 55 55 50 20 30 30 25 1001 180 15 -16.9000 115.600 40 80 963 4.50000 4.50000 10 70 79 90 90 150 1002 3 5 110 110 16 253
2020005S08133 2020 1 SI WA CLAUDIA 2020-01-13 09:00:00 TS -17.0683 114.717 main 444 444 P_____P_______ SH072020 -17.0644 114.634 TY 80 973 1 97 107 105 102 50 55 52 52 22 27 20 17 1002 192 15 -17.0722 114.800 40 80 964 10 74 74 84 94 140 1003 15 259
2020005S08133 2020 1 SI WA CLAUDIA 2020-01-13 12:00:00 TS -17.2000 113.950 80 965 bom main 474 474 O_____O_______ jtwc_sh SH072020 -17.2000 113.900 TY 80 975 1 105 105 100 105 55 55 50 55 25 25 10 10 1004 205 15 -17.2000 114.000 40 80 965 4.50000 4.50000 10 79 70 79 99 130 1004 5 110 110 16 257
2020005S08133 2020 1 SI WA CLAUDIA 2020-01-13 15:00:00 TS -17.4150 113.132 main 507 502 P_____P_______ SH072020 -17.4649 113.093 TY 82 973 1 102 115 105 97 52 60 52 50 25 30 20 15 1004 205 15 -17.3650 113.170 40 77 967 12 79 70 79 99 140 1004 16 255
2020005S08133 2020 1 SI WA CLAUDIA 2020-01-13 18:00:00 TS -17.6000 112.350 75 969 bom main 509 509 O_____O_______ jtwc_sh SH072020 -17.7000 112.300 TY 85 971 2 100 125 110 90 50 65 55 45 25 35 30 20 1004 205 15 -17.5000 112.400 40 75 969 4.50000 4.50000 15 79 70 79 99 150 1004 5 104 104 14 260
2020005S08133 2020 1 SI WA CLAUDIA 2020-01-13 21:00:00 TS -17.6610 111.651 main 527 527 P_____P_______ SH072020 -17.7725 111.540 TY 82 972 1 100 125 110 90 50 65 55 45 25 35 30 22 1004 205 15 -17.5496 111.762 40 72 971 15 74 74 79 94 164 1005 12 265
2020005S08133 2020 1 SI WA CLAUDIA 2020-01-14 00:00:00 TS -17.7000 111.050 70 974 bom main 559 559 O_____O_______ jtwc_sh SH072020 -17.8000 110.900 TY 80 974 1 100 125 110 90 50 65 55 45 25 35 30 25 1004 205 15 -17.6000 111.200 40 70 974 4.50000 4.50000 15 70 79 79 90 179 1006 5 99 99 11 262
2020005S08133 2020 1 SI WA CLAUDIA 2020-01-14 03:00:00 TS -17.8022 110.541 main 586 584 P_____P_______ SH072020 -17.8771 110.455 TY 75 977 1 105 120 100 90 52 62 50 45 27 32 25 22 1004 195 22 -17.7274 110.628 40 67 976 15 209 1007 9 255
2020005S08133 2020 1 SI WA CLAUDIA 2020-01-14 06:00:00 TS -17.9500 110.100 65 979 bom main 605 596 O_____O_______ jtwc_sh SH072020 -18.0000 110.100 TY 70 980 1 110 115 90 90 55 60 45 45 30 30 20 20 1004 185 30 -17.9000 110.100 40 65 979 4.00000 4.00000 15 239 1008 5 89 89 9 248
2020005S08133 2020 1 SI WA CLAUDIA 2020-01-14 09:00:00 TS -18.1310 109.679 main 618 618 P_____P_______ SH072020 -18.1848 109.715 TY 65 983 1 92 105 95 75 50 57 47 42 15 15 10 10 1005 200 40 -18.0772 109.642 40 57 984 17 229 1008 9 244
2020005S08133 2020 1 SI WA CLAUDIA 2020-01-14 12:00:00 TS -18.3500 109.250 50 989 bom main 634 634 O_____O_______ jtwc_sh SH072020 -18.4000 109.300 TS 60 986 0 75 95 100 60 45 55 50 40 1006 215 50 -18.3000 109.200 30 50 989 3.00000 3.00000 19 219 1008 3 5 69 69 10 243
2020005S08133 2020 1 SI WA CLAUDIA 2020-01-14 15:00:00 TS -18.5850 108.754 main 655 655 P_____P_______ SH072020 -18.5775 108.815 TS 52 990 0 67 87 92 55 22 27 25 20 1005 197 50 -18.5925 108.693 30 47 990 19 209 1008 11 242
2020005S08133 2020 1 SI WA CLAUDIA 2020-01-14 18:00:00 TS -18.8500 108.250 45 992 bom main 687 687 O_____O_______ jtwc_sh SH072020 -18.8000 108.300 TS 45 995 0 60 80 85 50 1004 180 50 -18.9000 108.200 30 45 992 3.00000 3.00000 19 59 79 79 59 199 1008 3 5 64 64 11 239
2020005S08133 2020 1 SI WA CLAUDIA 2020-01-14 21:00:00 TS -19.1386 107.792 main 717 712 P_____P_______ SH072020 -19.1349 107.793 TS 45 995 0 57 77 80 47 1004 172 50 -19.1423 107.792 30 45 993 19 59 79 79 59 209 1009 10 235
2020005S08133 2020 1 SI WA CLAUDIA 2020-01-15 00:00:00 TS -19.4500 107.350 45 994 bom main 736 736 O_____O_______ jtwc_sh SH072020 -19.5000 107.300 TS 45 996 0 55 75 75 45 1005 165 50 -19.4000 107.400 30 45 994 3.00000 3.00000 19 59 79 79 59 219 1010 5 64 64 11 233
2020005S08133 2020 1 SI WA CLAUDIA 2020-01-15 03:00:00 TS -19.7750 106.889 main 761 761 P_____P_______ SH072020 -19.8074 106.835 TS 45 996 0 57 77 57 47 1005 170 47 -19.7425 106.943 30 42 995 21 59 79 79 59 219 1010 11 232
2020005S08133 2020 1 SI WA CLAUDIA 2020-01-15 06:00:00 TS -20.1000 106.450 40 996 bom main 786 786 O_____O_______ jtwc_sh SH072020 -20.1000 106.400 TS 45 997 0 60 80 40 50 1005 175 45 -20.1000 106.500 30 40 996 3.00000 3.00000 24 59 79 79 59 219 1010 3 5 55 55 55 10 230
2020005S08133 2020 1 SI WA CLAUDIA 2020-01-15 09:00:00 TS -20.4071 106.093 main 813 813 P_____P_______ SH072020 -20.3997 106.007 TS 40 999 0 55 75 50 52 1005 167 45 -20.4145 106.180 30 35 999 209 1010 9 230
2020005S08133 2020 1 SI WA CLAUDIA 2020-01-15 12:00:00 TS -20.7000 105.700 30 1003 bom main 843 843 O_____O_______ jtwc_sh SH072020 -20.7000 105.600 TS 35 1002 0 50 70 60 55 1005 160 45 -20.7000 105.800 20 30 1003 2.50000 2.50000 199 1010 5 45 45 11 239
2020005S08133 2020 1 SI WA CLAUDIA 2020-01-15 15:00:00 TS -20.9680 105.110 main 895 895 P_____P_______ SH072020 -21.0002 105.085 TS 32 1002 -1 1005 160 45 -20.9357 105.135 20 30 1004 199 1010 12 243
2020005S08133 2020 1 SI WA CLAUDIA 2020-01-15 18:00:00 TS -21.2500 104.550 30 1006 bom main 941 941 O_____O_______ jtwc_sh SH072020 -21.3000 104.600 TD 30 1003 -1 1006 160 45 -21.2000 104.500 20 30 1006 2.00000 2.50000 199 1010 5 45 45 10 234
2020005S08133 2020 1 SI WA CLAUDIA 2020-01-15 21:00:00 TS -21.5772 104.207 main 974 974 P_____P_______ SH072020 -21.5774 104.240 TD 30 1003 -1 1006 160 45 -21.5771 104.175 20 27 1007 199 1011 9 216
2020005S08133 2020 1 SI WA CLAUDIA 2020-01-16 00:00:00 TS -21.9500 104.000 25 1008 bom main 990 988 O_____O_______ jtwc_sh SH072020 -21.9000 104.000 TD 30 1004 -1 1006 160 45 -22.0000 104.000 20 25 1008 199 1012 3 5 45 45 9 202
2020005S08133 2020 1 SI WA CLAUDIA 2020-01-16 03:00:00 TS -22.3899 103.859 main 994 993 P_____P_______ SH072020 -22.3574 103.885 TD 27 1004 -1 1006 160 45 -22.4224 103.833 20 22 1008 9 195
2020005S08133 2020 1 SI WA CLAUDIA 2020-01-16 06:00:00 TS -22.8000 103.750 20 1008 bom main 993 993 O_____O_______ jtwc_sh SH072020 -22.8000 103.800 TD 25 1004 -1 1006 160 45 -22.8000 103.700 20 20 1008 3 5 45 45 7 200
2020005S08133 2020 1 SI WA CLAUDIA 2020-01-16 09:00:00 TS -23.0762 103.591 main 1007 1007 P_____P_______ SH072020 -23.0800 103.615 TD 22 1005 -1 1006 160 45 -23.0725 103.567 20 20 1008 6 212
2020005S08133 2020 1 SI WA CLAUDIA 2020-01-16 12:00:00 NR -23.3000 103.415 20 1008 bom main 1023 1021 O_____O_______ jtwc_sh SH072020 -23.3000 103.400 DB 20 1006 -3 1006 160 45 -23.3000 103.430 20 20 1008 3 5 45 45 6 215
2020005S08133 2020 1 SI WA CLAUDIA 2020-01-16 15:00:00 NR -23.5575 103.219 main 1039 1039 P_____P_______ SH072020 -23.5650 103.185 DB 20 1005 -3 1006 160 45 -23.5500 103.252 20 20 1008 6 214
2020005S08133 2020 1 SI WA CLAUDIA 2020-01-16 18:00:00 NR -23.8000 103.050 20 1008 bom main 1046 1046 O_____O_______ jtwc_sh SH072020 -23.8000 103.000 DB 20 1004 -3 1006 160 45 -23.8000 103.100 20 20 1008 5 45 45 5 206
2020005S08133 2020 1 SI WA CLAUDIA 2020-01-16 21:00:00 NR -24.0299 102.966 main 1054 1054 P_____P_______ SH072020 -23.9725 102.885 DB 20 1004 -3 1006 160 45 -24.0874 103.048 20 20 1008 4 199
2020005S08133 2020 1 SI WA CLAUDIA 2020-01-17 00:00:00 NR -24.2000 102.900 20 1008 bom main 1063 1062 O_____O_______ jtwc_sh SH072020 -24.1000 102.800 DB 20 1004 -3 1006 160 45 -24.3000 103.000 20 20 1008 3 5 45 45 3 212
2020005S08133 2020 1 SI WA CLAUDIA 2020-01-17 03:00:00 NR -24.2912 102.794 main 1072 1072 P_____P_______ SH072020 -24.2300 102.708 DB 20 1005 -3 1007 155 45 -24.3525 102.880 20 20 1008 2 246
2020005S08133 2020 1 SI WA CLAUDIA 2020-01-17 06:00:00 NR -24.3000 102.650 20 1008 bom main 1083 1083 O_____O_______ jtwc_sh SH072020 -24.3000 102.600 DB 20 1007 -3 1008 150 45 -24.3000 102.700 20 20 1008 3 5 45 45 3 273
2020005S08133 2020 1 SI WA CLAUDIA 2020-01-17 09:00:00 NR -24.2773 102.503 main 1103 1103 P_____P_______ SH072020 -24.3173 102.503 DB 20 1007 -3 1008 145 45 -24.2373 102.503 20 20 1008 4 292
2020005S08133 2020 1 SI WA CLAUDIA 2020-01-17 12:00:00 NR -24.1500 102.250 20 1008 bom main 1124 1124 O_____O_______ jtwc_sh SH072020 -24.2000 102.300 DB 20 1007 -3 1008 140 45 -24.1000 102.200 20 20 1008 3 5 45 45 7 303
2020005S08133 2020 1 SI WA CLAUDIA 2020-01-17 15:00:00 NR -23.8688 101.823 main 1177 1177 P_____P_______ SH072020 -23.8725 101.909 DB 20 1007 -3 1008 152 45 -23.8651 101.737 20 17 1008 11 305
2020005S08133 2020 1 SI WA CLAUDIA 2020-01-17 18:00:00 NR -23.5500 101.300 15 1008 bom main 1232 1231 O_____O_______ jtwc_sh SH072020 -23.5000 101.400 DB 20 1007 -3 1009 165 45 -23.6000 101.200 20 15 1008 3 5 45 45 11 300
2020005S08133 2020 1 SI WA CLAUDIA 2020-01-17 21:00:00 NR -23.3162 100.777 main 1286 1286 P_____P_______ SH072020 -23.2475 100.865 DB 20 1007 -3 1009 150 45 -23.3849 100.689 20 15 1008 10 293
2020005S08133 2020 1 SI WA CLAUDIA 2020-01-18 00:00:00 NR -23.1500 100.250 15 1008 bom main 1339 1338 O_____O_______ jtwc_sh SH072020 -23.1000 100.300 DB 20 1007 -3 1009 135 45 -23.2000 100.200 20 15 1008 3 5 45 45 10 285
2020005S08133 2020 1 SI WA CLAUDIA 2020-01-18 03:00:00 NR -23.0674 99.7460 main 1400 1400 P_____P_______ SH072020 -23.0925 99.7281 DB 20 1007 -3 1009 125 45 -23.0423 99.7640 20 15 1008 9 279
2020005S08133 2020 1 SI WA CLAUDIA 2020-01-18 06:00:00 NR -23.0000 99.2750 15 1008 bom main 1442 1442 O_____O_______ jtwc_sh SH072020 -23.1000 99.2000 DB 20 1007 -3 1009 115 45 -22.9000 99.3500 20 15 1008 3 5 45 45 8 284
2020005S08133 2020 1 SI WA CLAUDIA 2020-01-18 09:00:00 NR -22.8647 98.8626 main 1484 1484 P_____P_______ SH072020 -22.9795 98.8001 DB 17 1007 -3 1009 100 45 -22.7499 98.9251 20 15 1008 8 292
2020005S08133 2020 1 SI WA CLAUDIA 2020-01-18 12:00:00 NR -22.7000 98.4500 15 1008 bom main 1529 1529 O_____O_______ jtwc_sh SH072020 -22.8000 98.4000 DB 15 1008 -3 1009 85 45 -22.6000 98.5000 20 15 1008 3 5 45 45 9 292
2020005S08133 2020 1 SI WA CLAUDIA 2020-01-18 15:00:00 NR -22.5288 97.9587 main 1583 1583 P_____P_______ SH072020 -22.6078 97.8424 DB 15 1008 -3 1009 80 45 -22.4499 98.0751 20 15 1008 10 290
2020005S08133 2020 1 SI WA CLAUDIA 2020-01-18 18:00:00 NR -22.3571 97.4500 15 1008 bom main 1636 1636 O_____O_______ jtwc_sh SH072020 -22.4000 97.3000 DB 15 1009 -3 1010 75 45 -22.3000 97.6500 20 15 1008 3 5 45 45 9 292
2020005S08133 2020 1 SI WA CLAUDIA 2020-01-18 21:00:00 NR -22.1832 97.0218 main 1690 1690 P_____P_______ SH072020 -22.1997 96.9202 DB 15 1009 -3 1010 95 45 -22.1502 97.2248 20 15 1008 8 296
2020005S08133 2020 1 SI WA CLAUDIA 2020-01-19 00:00:00 NR -22.0000 96.6500 15 1008 bom main 1725 1725 O_____O_______ jtwc_sh SH072020 -22.0000 96.6000 DB 15 1010 -3 1011 115 45 -22.0000 96.8000 20 15 1008 3 5 45 45 8 298
2020005S08133 2020 1 SI WA CLAUDIA 2020-01-19 03:00:00 NR -21.8003 96.2597 main 1770 1770 P_____________ SH072020 -21.8003 96.2597 DB 15 1010 -3 1011 115 45 20 8 300
2020005S08133 2020 1 SI WA CLAUDIA 2020-01-19 06:00:00 NR -21.6000 95.9000 main 1816 O_____________ jtwc_sh SH072020 -21.6000 95.9000 DB 15 1010 -3 1011 115 45 8 301

About IBTrACS Database

This database is a web-friendly format of International Best Track Archive for Climate Stewardship (IBTrACS), a global best track data archive curated by NOAA dating back to 1842.

Updated: 2022-01-14